Time;durP1;ratioP1;P1;durP2;ratioP2;P2;SDS_P1;SDS_P2;PMS_P1;PMS_P2;Temp;Humidity;BMP_temperature;BMP_pressure;BME280_temperature;BME280_humidity;BME280_pressure;Samples;Min_cycle;Max_cycle;Signal;HPM_P1;HPM_P2
2021/10/18 00:01:55;;;;;;;22.10;15.43;;;10.50;98.30;;;;;;4130949;28;20463;-83
2021/10/18 00:04:01;;;;;;;21.40;16.10;;;10.50;98.30;;;;;;4130364;28;21335;-83
2021/10/18 00:06:04;;;;;;;27.60;16.13;;;10.60;98.30;;;;;;4130455;28;20904;-83
2021/10/18 00:08:07;;;;;;;24.07;17.03;;;10.50;98.30;;;;;;4130385;28;20975;-83
2021/10/18 00:10:12;;;;;;;20.90;15.20;;;10.50;98.30;;;;;;4130356;28;20498;-82
2021/10/18 00:12:19;;;;;;;22.00;15.63;;;10.60;98.30;;;;;;4130746;28;20985;-83
2021/10/18 00:14:22;;;;;;;21.27;15.10;;;10.60;98.30;;;;;;4130612;28;20479;-83
2021/10/18 00:16:25;;;;;;;20.43;14.50;;;10.60;98.30;;;;;;4130206;28;20958;-83
2021/10/18 00:18:28;;;;;;;21.97;16.17;;;10.60;98.30;;;;;;4130213;28;20475;-83
2021/10/18 00:20:31;;;;;;;21.03;14.80;;;10.60;98.30;;;;;;4130085;28;20550;-83
2021/10/18 00:22:35;;;;;;;21.27;15.40;;;10.60;98.30;;;;;;4134665;28;20462;-83
2021/10/18 00:24:38;;;;;;;25.13;15.40;;;10.60;98.30;;;;;;4135599;28;20478;-82
2021/10/18 00:26:41;;;;;;;21.13;14.77;;;10.60;98.30;;;;;;4132944;28;20581;-83
2021/10/18 00:28:45;;;;;;;21.63;15.50;;;10.60;98.30;;;;;;4133187;28;20470;-83
2021/10/18 00:30:48;;;;;;;23.10;15.17;;;10.60;98.30;;;;;;4131932;28;20846;-83
2021/10/18 00:32:51;;;;;;;19.23;14.77;;;10.60;98.30;;;;;;4132869;28;20982;-84
2021/10/18 00:34:54;;;;;;;23.13;15.50;;;10.60;98.30;;;;;;4132865;28;20463;-83
2021/10/18 00:36:58;;;;;;;23.67;15.23;;;10.60;98.30;;;;;;4133574;28;20958;-84
2021/10/18 00:41:22;;;;;;;16.73;13.57;;;10.60;98.30;;;;;;4127209;28;20510;-83
2021/10/18 01:00:04;;;;;;;23.43;13.30;;;10.60;98.30;;;;;;3987330;29;20577;-83
2021/10/18 01:02:16;;;;;;;17.90;14.40;;;10.60;98.30;;;;;;4045156;29;20483;-84
2021/10/18 01:06:55;;;;;;;18.07;14.43;;;10.70;98.30;;;;;;4067007;29;21351;-83
2021/10/18 01:09:02;;;;;;;19.60;12.10;;;10.70;98.30;;;;;;4097981;28;20472;-83
2021/10/18 01:24:48;;;;;;;22.03;14.90;;;10.70;98.30;;;;;;4092985;29;20508;-83
2021/10/18 01:27:01;;;;;;;16.50;12.20;;;10.70;98.30;;;;;;4083505;28;21010;-83
2021/10/18 01:29:14;;;;;;;15.80;12.30;;;10.70;98.30;;;;;;4124282;28;20470;-83
2021/10/18 01:35:00;;;;;;;19.70;11.97;;;10.60;98.30;;;;;;4131897;28;20495;-83
2021/10/18 01:42:55;;;;;;;17.80;14.23;;;10.50;98.30;;;;;;4071859;29;20599;-84
2021/10/18 01:45:03;;;;;;;16.90;12.50;;;10.50;98.30;;;;;;4096729;28;20516;-84
2021/10/18 01:47:13;;;;;;;15.90;11.83;;;10.50;98.30;;;;;;4103595;28;20457;-84
2021/10/18 01:49:29;;;;;;;21.43;14.20;;;10.40;98.30;;;;;;4098263;29;20499;-83
2021/10/18 01:51:49;;;;;;;18.10;12.87;;;10.40;98.30;;;;;;4097859;28;20974;-84
2021/10/18 01:53:57;;;;;;;16.30;12.07;;;10.30;98.30;;;;;;4103966;28;20472;-84
2021/10/18 01:56:00;;;;;;;18.87;12.90;;;10.30;98.30;;;;;;4098520;28;20561;-84
2021/10/18 01:58:08;;;;;;;17.13;13.30;;;10.30;98.30;;;;;;4098192;29;20509;-84
2021/10/18 02:00:15;;;;;;;19.50;13.40;;;10.30;98.30;;;;;;4098073;28;20521;-85
2021/10/18 02:02:18;;;;;;;17.37;12.73;;;10.30;98.30;;;;;;4097617;29;20490;-83
2021/10/18 02:04:30;;;;;;;16.23;13.90;;;10.20;98.30;;;;;;4097194;28;20915;-84
2021/10/18 02:06:33;;;;;;;18.80;14.93;;;10.20;98.30;;;;;;4097829;29;20472;-83
2021/10/18 02:08:36;;;;;;;23.27;13.70;;;10.20;98.30;;;;;;4097835;29;20833;-84
2021/10/18 02:10:39;;;;;;;22.10;12.80;;;10.20;98.30;;;;;;4098055;28;20503;-83
2021/10/18 02:12:43;;;;;;;19.53;12.90;;;10.20;98.30;;;;;;4097728;29;20588;-84
2021/10/18 02:14:48;;;;;;;24.33;13.43;;;10.20;98.30;;;;;;4097501;28;20631;-84
2021/10/18 02:16:50;;;;;;;19.27;13.70;;;10.20;98.30;;;;;;4102516;28;21184;-84
2021/10/18 02:18:53;;;;;;;20.43;13.93;;;10.20;98.30;;;;;;4138276;28;20485;-83
2021/10/18 02:21:00;;;;;;;21.83;13.33;;;10.20;98.30;;;;;;4131741;28;20499;-84
2021/10/18 02:23:03;;;;;;;18.37;13.33;;;10.20;98.30;;;;;;4131599;28;20557;-83
2021/10/18 02:25:09;;;;;;;15.83;13.63;;;10.20;98.30;;;;;;4131453;28;20869;-84
2021/10/18 02:27:12;;;;;;;17.27;14.70;;;10.20;98.30;;;;;;4131528;28;20820;-84
2021/10/18 02:29:15;;;;;;;18.00;12.87;;;10.20;98.30;;;;;;4131494;28;20518;-84
2021/10/18 02:31:20;;;;;;;15.90;13.00;;;10.20;98.30;;;;;;4139638;28;21008;-83
2021/10/18 02:33:23;;;;;;;17.00;13.13;;;10.20;98.30;;;;;;4131391;28;20477;-84
2021/10/18 02:35:26;;;;;;;16.83;12.27;;;10.20;98.30;;;;;;4131493;28;20590;-84
2021/10/18 02:37:31;;;;;;;16.90;13.27;;;10.20;98.30;;;;;;4131996;28;20471;-84
2021/10/18 02:39:35;;;;;;;21.03;13.47;;;10.20;98.30;;;;;;4131680;28;20487;-84
2021/10/18 02:41:38;;;;;;;17.93;12.93;;;10.20;98.30;;;;;;4139832;28;20471;-84
2021/10/18 02:43:41;;;;;;;18.17;12.93;;;10.20;98.30;;;;;;4131461;28;20463;-85
2021/10/18 02:45:44;;;;;;;19.73;13.70;;;10.20;98.30;;;;;;4131318;28;20478;-84
2021/10/18 02:47:48;;;;;;;18.40;14.30;;;10.20;98.30;;;;;;4131096;28;20533;-84
2021/10/18 02:49:51;;;;;;;22.83;13.87;;;10.20;98.30;;;;;;4131377;28;20823;-83
2021/10/18 02:51:54;;;;;;;27.37;14.60;;;10.20;98.30;;;;;;4137323;28;20563;-83
2021/10/18 02:53:57;;;;;;;19.80;14.90;;;10.20;98.30;;;;;;4131848;28;20473;-83
2021/10/18 02:56:00;;;;;;;21.23;15.20;;;10.20;98.30;;;;;;4131177;28;20497;-84
2021/10/18 02:58:03;;;;;;;21.50;14.30;;;10.20;98.30;;;;;;4131625;28;20467;-84
2021/10/18 03:00:07;;;;;;;22.00;14.47;;;10.20;98.30;;;;;;4131585;28;20490;-83
2021/10/18 03:02:10;;;;;;;22.47;13.50;;;10.20;98.30;;;;;;4131344;28;20471;-83
2021/10/18 03:04:15;;;;;;;25.03;15.57;;;10.20;98.30;;;;;;4137767;28;20486;-83
2021/10/18 03:06:19;;;;;;;20.63;14.70;;;10.20;98.30;;;;;;4152567;28;20473;-83
2021/10/18 03:08:22;;;;;;;17.80;14.17;;;10.20;98.30;;;;;;4153273;28;20463;-83
2021/10/18 03:10:27;;;;;;;19.57;13.63;;;10.20;98.30;;;;;;4158504;28;20509;-84
2021/10/18 03:12:30;;;;;;;22.87;14.67;;;10.20;98.30;;;;;;4139020;28;20459;-82
2021/10/18 03:14:33;;;;;;;17.90;14.90;;;10.10;98.30;;;;;;4132247;28;20477;-84
2021/10/18 03:16:36;;;;;;;21.47;14.30;;;10.10;98.30;;;;;;4131662;28;20493;-84
2021/10/18 03:18:39;;;;;;;23.73;15.33;;;10.10;98.30;;;;;;4132551;28;20550;-84
2021/10/18 03:20:43;;;;;;;17.13;13.00;;;10.10;98.30;;;;;;4133201;28;20491;-84
2021/10/18 03:22:46;;;;;;;19.93;15.30;;;10.10;98.30;;;;;;4134641;28;20865;-83
2021/10/18 03:24:49;;;;;;;23.27;16.10;;;10.10;98.30;;;;;;4142868;28;20483;-83
2021/10/18 03:26:53;;;;;;;22.70;15.53;;;10.10;98.30;;;;;;4140967;28;20464;-84
2021/10/18 03:28:57;;;;;;;26.17;15.57;;;10.10;98.30;;;;;;4145907;28;20967;-83
2021/10/18 03:31:00;;;;;;;19.37;14.20;;;10.10;98.30;;;;;;4146415;28;20471;-84
2021/10/18 03:33:04;;;;;;;22.00;14.43;;;10.10;98.30;;;;;;4153785;28;20490;-83
2021/10/18 03:35:08;;;;;;;21.90;15.73;;;10.10;98.30;;;;;;4138018;28;20466;-84
2021/10/18 03:37:12;;;;;;;21.47;14.57;;;10.10;98.30;;;;;;4147613;28;20494;-83
2021/10/18 03:39:15;;;;;;;20.83;14.87;;;10.10;98.30;;;;;;4132077;28;20850;-83
2021/10/18 03:41:18;;;;;;;25.67;15.40;;;10.10;98.30;;;;;;4131087;28;20481;-83
2021/10/18 03:43:21;;;;;;;22.80;16.87;;;10.10;98.30;;;;;;4139315;28;20462;-83
2021/10/18 03:45:25;;;;;;;25.67;15.87;;;10.10;98.30;;;;;;4131054;28;20900;-84
2021/10/18 03:47:28;;;;;;;23.40;14.93;;;10.20;98.30;;;;;;4132571;28;20982;-84
2021/10/18 03:50:15;;;;;;;23.10;14.33;;;10.20;98.30;;;;;;4141500;28;20489;-84
2021/10/18 03:52:26;;;;;;;20.17;13.83;;;10.20;98.30;;;;;;4088829;29;20520;-84
2021/10/18 03:54:29;;;;;;;26.47;16.07;;;10.20;98.30;;;;;;4114986;28;20470;-83
2021/10/18 03:56:32;;;;;;;19.57;14.20;;;10.20;98.30;;;;;;4130843;28;20471;-84
2021/10/18 03:58:35;;;;;;;19.93;15.17;;;10.10;98.30;;;;;;4131459;28;20466;-84
2021/10/18 04:00:38;;;;;;;20.33;15.80;;;10.20;98.30;;;;;;4133425;28;20491;-83
2021/10/18 04:02:42;;;;;;;18.97;13.97;;;10.20;98.30;;;;;;4133703;28;20481;-83
2021/10/18 04:04:45;;;;;;;19.47;14.77;;;10.30;98.30;;;;;;4133576;28;20494;-83
2021/10/18 04:06:48;;;;;;;22.30;15.50;;;10.30;98.30;;;;;;4134148;28;20467;-84
2021/10/18 04:08:54;;;;;;;20.63;15.60;;;10.30;98.30;;;;;;4134339;28;20475;-84
2021/10/18 04:10:57;;;;;;;24.80;16.40;;;10.30;98.30;;;;;;4133635;28;20912;-84
2021/10/18 04:13:00;;;;;;;21.90;15.53;;;10.30;98.30;;;;;;4134079;28;20502;-84
2021/10/18 04:15:17;;;;;;;22.30;14.63;;;10.30;98.30;;;;;;4125511;28;20519;-83
2021/10/18 04:17:20;;;;;;;23.07;15.37;;;10.30;98.30;;;;;;4133895;28;20873;-83
2021/10/18 04:19:27;;;;;;;20.70;13.43;;;10.30;98.30;;;;;;4133582;28;20494;-83
2021/10/18 04:21:35;;;;;;;21.83;15.27;;;10.40;98.30;;;;;;4133644;28;20982;-83
2021/10/18 04:23:37;;;;;;;21.43;15.63;;;10.40;98.30;;;;;;4129428;28;20479;-84
2021/10/18 04:25:44;;;;;;;21.83;15.93;;;10.40;98.30;;;;;;4132796;28;20482;-84
2021/10/18 04:27:48;;;;;;;20.77;14.70;;;10.40;98.30;;;;;;4135157;28;20525;-84
2021/10/18 04:29:51;;;;;;;26.13;15.13;;;10.40;98.30;;;;;;4134789;28;20490;-84
2021/10/18 04:31:58;;;;;;;20.37;15.30;;;10.40;98.30;;;;;;4133283;28;20537;-83
2021/10/18 04:34:01;;;;;;;26.13;15.13;;;10.50;98.30;;;;;;4133293;28;20478;-83
2021/10/18 04:36:04;;;;;;;22.43;16.10;;;10.50;98.30;;;;;;4132828;28;20895;-83
2021/10/18 04:38:08;;;;;;;19.17;15.20;;;10.50;98.30;;;;;;4133344;28;20538;-84
2021/10/18 04:40:11;;;;;;;22.23;13.83;;;10.50;98.30;;;;;;4133655;28;20483;-82
2021/10/18 04:42:16;;;;;;;17.83;13.73;;;10.50;98.30;;;;;;4133232;28;20501;-83
2021/10/18 04:44:19;;;;;;;18.60;13.20;;;10.50;98.30;;;;;;4133360;28;20467;-83
2021/10/18 04:46:22;;;;;;;21.97;15.00;;;10.50;98.30;;;;;;4133003;28;20487;-86
2021/10/18 04:48:25;;;;;;;24.97;15.30;;;10.50;98.30;;;;;;4133288;28;20530;-86
2021/10/18 04:50:28;;;;;;;16.30;12.63;;;10.50;98.30;;;;;;4133034;28;20497;-86
2021/10/18 04:52:31;;;;;;;21.13;14.43;;;10.60;98.30;;;;;;4132644;28;20494;-85
2021/10/18 04:54:34;;;;;;;20.80;14.90;;;10.60;98.30;;;;;;4132681;28;20475;-82
2021/10/18 04:56:36;;;;;;;19.43;14.90;;;10.50;98.30;;;;;;4132890;28;20475;-82
2021/10/18 04:58:41;;;;;;;21.27;16.67;;;10.60;98.30;;;;;;4132964;28;20478;-82
2021/10/18 05:00:46;;;;;;;18.93;14.03;;;10.60;98.30;;;;;;4138284;28;20489;-84
2021/10/18 05:02:50;;;;;;;21.03;13.97;;;10.60;98.30;;;;;;4139402;28;20498;-83
2021/10/18 05:04:54;;;;;;;19.93;16.60;;;10.60;98.30;;;;;;4132669;28;20521;-83
2021/10/18 05:06:57;;;;;;;19.27;14.70;;;10.60;98.30;;;;;;4136627;28;20495;-83
2021/10/18 05:08:59;;;;;;;23.73;13.90;;;10.60;98.30;;;;;;4132574;28;20478;-83
2021/10/18 05:11:03;;;;;;;24.17;15.37;;;10.60;98.30;;;;;;4132444;28;20481;-84
2021/10/18 05:13:06;;;;;;;22.80;13.87;;;10.70;98.30;;;;;;4124479;28;20492;-83
2021/10/18 05:15:11;;;;;;;21.10;14.77;;;10.70;98.30;;;;;;4131875;28;21209;-83
2021/10/18 05:17:14;;;;;;;23.20;13.90;;;10.70;98.30;;;;;;4132061;28;20469;-83
2021/10/18 05:19:17;;;;;;;19.93;14.00;;;10.70;98.30;;;;;;4139318;28;20484;-83
2021/10/18 05:21:20;;;;;;;19.03;14.70;;;10.70;98.30;;;;;;4131256;28;20478;-83
2021/10/18 05:23:23;;;;;;;19.80;14.03;;;10.70;98.30;;;;;;4130977;28;20806;-83
2021/10/18 05:25:29;;;;;;;18.00;13.50;;;10.70;98.30;;;;;;4139112;28;20557;-83
2021/10/18 05:27:32;;;;;;;18.87;14.53;;;10.70;98.30;;;;;;4131473;28;20848;-83
2021/10/18 05:29:34;;;;;;;22.67;15.00;;;10.70;98.30;;;;;;4131074;28;20849;-84
2021/10/18 05:31:39;;;;;;;20.13;13.97;;;10.70;98.30;;;;;;4132255;28;20482;-83
2021/10/18 05:33:42;;;;;;;21.50;15.53;;;10.70;98.30;;;;;;4132186;28;21039;-86
2021/10/18 05:35:46;;;;;;;19.40;13.80;;;10.70;98.30;;;;;;4132033;28;20467;-83
2021/10/18 05:37:49;;;;;;;20.83;14.37;;;10.70;98.30;;;;;;4132092;28;20851;-83
2021/10/18 05:39:52;;;;;;;16.70;13.37;;;10.70;98.30;;;;;;4132079;28;20577;-83
2021/10/18 05:41:55;;;;;;;24.03;14.80;;;10.70;98.30;;;;;;4132045;28;20478;-83
2021/10/18 05:43:59;;;;;;;17.67;13.50;;;10.80;98.30;;;;;;4131872;28;20471;-83
2021/10/18 05:46:01;;;;;;;21.37;14.23;;;10.80;98.30;;;;;;4131646;28;20495;-83
2021/10/18 05:48:06;;;;;;;18.53;13.60;;;10.70;98.30;;;;;;4131871;28;20506;-83
2021/10/18 05:50:10;;;;;;;21.20;13.37;;;10.70;98.30;;;;;;4124317;28;21086;-83
2021/10/18 05:52:13;;;;;;;19.33;13.43;;;10.80;98.30;;;;;;4132014;28;20470;-83
2021/10/18 05:54:15;;;;;;;17.60;14.10;;;10.80;98.30;;;;;;4131574;28;20474;-83
2021/10/18 05:56:18;;;;;;;19.73;13.30;;;10.70;98.30;;;;;;4131660;28;20466;-83
2021/10/18 05:58:21;;;;;;;22.03;14.40;;;10.70;98.30;;;;;;4131705;28;20478;-84
2021/10/18 06:00:26;;;;;;;24.80;14.57;;;10.70;98.30;;;;;;4131687;28;20570;-83
2021/10/18 06:02:29;;;;;;;23.13;14.30;;;10.80;98.30;;;;;;4131574;28;20469;-83
2021/10/18 06:04:36;;;;;;;21.40;14.20;;;10.70;98.30;;;;;;4131458;28;20475;-83
2021/10/18 06:06:39;;;;;;;22.60;13.70;;;10.80;98.30;;;;;;4131585;28;21018;-83
2021/10/18 06:08:49;;;;;;;19.70;13.80;;;10.80;98.30;;;;;;4131612;28;20471;-83
2021/10/18 06:10:52;;;;;;;21.93;15.13;;;10.80;98.30;;;;;;4137539;28;20485;-83
2021/10/18 06:12:55;;;;;;;18.83;13.17;;;10.80;98.30;;;;;;4133041;28;20474;-84
2021/10/18 06:14:57;;;;;;;25.77;16.07;;;10.80;98.30;;;;;;4131411;28;20563;-84
2021/10/18 06:17:00;;;;;;;18.60;13.53;;;10.80;98.30;;;;;;4131597;28;20470;-83
2021/10/18 06:19:03;;;;;;;19.50;13.37;;;10.80;98.30;;;;;;4131570;28;20463;-83
2021/10/18 06:21:08;;;;;;;19.90;13.37;;;10.80;98.30;;;;;;4130989;28;20511;-83
2021/10/18 06:23:12;;;;;;;21.47;14.70;;;10.80;98.30;;;;;;4139457;28;20512;-83
2021/10/18 06:25:15;;;;;;;18.10;13.53;;;10.80;98.30;;;;;;4139481;28;20561;-83
2021/10/18 06:27:20;;;;;;;25.97;15.37;;;10.90;98.30;;;;;;4139413;28;20490;-83
2021/10/18 06:29:25;;;;;;;19.60;14.07;;;10.80;98.30;;;;;;4131086;28;21117;-83
2021/10/18 06:31:28;;;;;;;16.83;12.73;;;10.80;98.30;;;;;;4131534;28;20914;-83
2021/10/18 06:33:31;;;;;;;20.50;14.17;;;10.90;98.30;;;;;;4131615;28;20470;-84
2021/10/18 06:35:35;;;;;;;20.17;15.20;;;10.90;98.30;;;;;;4131227;28;20474;-83
2021/10/18 06:37:39;;;;;;;19.70;14.70;;;10.90;98.30;;;;;;4131315;28;20469;-83
2021/10/18 06:39:43;;;;;;;22.70;17.13;;;10.90;98.30;;;;;;4130899;28;21235;-83
2021/10/18 06:41:45;;;;;;;18.57;14.67;;;10.90;98.30;;;;;;4133231;28;20566;-84
2021/10/18 06:43:49;;;;;;;21.07;13.33;;;10.90;98.30;;;;;;4133753;28;20467;-84
2021/10/18 06:45:52;;;;;;;20.00;14.00;;;11.00;98.30;;;;;;4130774;28;20570;-84
2021/10/18 06:47:55;;;;;;;18.17;13.87;;;11.00;98.30;;;;;;4131558;28;20518;-83
2021/10/18 06:49:58;;;;;;;17.20;13.20;;;11.00;98.30;;;;;;4131280;28;20564;-84
2021/10/18 06:52:01;;;;;;;19.63;14.23;;;11.00;98.30;;;;;;4131119;28;20467;-83
2021/10/18 06:54:06;;;;;;;19.40;13.33;;;11.00;98.30;;;;;;4130977;28;20482;-84
2021/10/18 06:56:09;;;;;;;26.00;14.13;;;11.10;98.30;;;;;;4131315;28;20506;-84
2021/10/18 06:58:14;;;;;;;17.80;13.70;;;11.10;98.30;;;;;;4138111;28;20477;-84
2021/10/18 07:00:17;;;;;;;15.80;12.47;;;11.10;98.30;;;;;;4131078;28;20490;-84
2021/10/18 07:02:21;;;;;;;18.17;13.73;;;11.10;98.30;;;;;;4130556;28;20566;-84
2021/10/18 07:04:24;;;;;;;20.70;13.43;;;11.10;98.30;;;;;;4130815;28;20545;-85
2021/10/18 07:06:27;;;;;;;21.07;14.67;;;11.10;98.30;;;;;;4130634;28;20467;-84
2021/10/18 07:08:30;;;;;;;19.70;15.60;;;11.20;98.30;;;;;;4130894;28;20503;-84
2021/10/18 07:10:34;;;;;;;19.23;13.23;;;11.20;98.30;;;;;;4130537;28;20483;-84
2021/10/18 07:12:37;;;;;;;19.10;14.20;;;11.30;98.30;;;;;;4130744;28;20526;-84
2021/10/18 07:14:40;;;;;;;21.93;13.73;;;11.30;98.30;;;;;;4135167;28;20469;-84
2021/10/18 07:16:43;;;;;;;21.10;13.70;;;11.30;98.30;;;;;;4133819;28;20467;-83
2021/10/18 07:18:46;;;;;;;18.27;14.27;;;11.30;98.30;;;;;;4130929;28;20526;-84
2021/10/18 07:20:49;;;;;;;23.57;14.50;;;11.30;98.30;;;;;;4136442;28;20490;-84
2021/10/18 07:22:56;;;;;;;19.07;14.27;;;11.30;98.30;;;;;;4140238;28;20467;-84
2021/10/18 07:24:59;;;;;;;17.50;12.87;;;11.30;98.30;;;;;;4130484;28;20520;-84
2021/10/18 07:27:03;;;;;;;19.63;13.97;;;11.30;98.30;;;;;;4130557;28;20490;-84
2021/10/18 07:29:21;;;;;;;17.70;13.43;;;11.30;98.30;;;;;;4124733;28;20491;-84
2021/10/18 07:31:24;;;;;;;27.80;13.80;;;11.30;98.30;;;;;;4130785;28;20471;-84
2021/10/18 07:33:27;;;;;;;21.13;14.30;;;11.30;98.30;;;;;;4132940;28;20902;-83
2021/10/18 07:35:32;;;;;;;18.30;14.47;;;11.30;98.30;;;;;;4133725;28;20473;-84
2021/10/18 07:37:35;;;;;;;16.23;13.70;;;11.40;98.30;;;;;;4134465;28;20471;-84
2021/10/18 07:39:38;;;;;;;18.30;14.47;;;11.40;98.30;;;;;;4134219;28;20494;-84
2021/10/18 07:41:41;;;;;;;17.77;13.57;;;11.40;98.30;;;;;;4134280;28;20466;-84
2021/10/18 07:43:45;;;;;;;20.07;14.57;;;11.50;98.30;;;;;;4370484;22;20499;-82
2021/10/18 07:45:48;;;;;;;21.23;14.10;;;11.50;98.30;;;;;;4193919;28;20478;-83
2021/10/18 07:47:50;;;;;;;21.07;15.13;;;11.60;98.30;;;;;;4191671;28;21205;-82
2021/10/18 07:49:54;;;;;;;22.90;14.37;;;11.60;98.30;;;;;;4191773;28;20467;-82
2021/10/18 07:51:58;;;;;;;19.30;14.40;;;11.70;98.30;;;;;;4199083;28;20715;-82
2021/10/18 07:54:02;;;;;;;17.93;12.63;;;11.70;98.30;;;;;;4199944;28;20486;-82
2021/10/18 07:56:05;;;;;;;19.13;14.20;;;11.60;98.30;;;;;;4191605;28;20475;-82
2021/10/18 07:58:08;;;;;;;19.33;14.43;;;11.60;98.30;;;;;;4191403;28;20467;-83
2021/10/18 08:00:14;;;;;;;21.00;14.47;;;11.70;98.30;;;;;;4191462;28;20476;-82
2021/10/18 08:02:16;;;;;;;22.97;14.77;;;11.70;98.30;;;;;;4194726;28;20557;-82
2021/10/18 08:04:19;;;;;;;18.80;14.60;;;11.70;98.30;;;;;;4197377;28;20487;-82
2021/10/18 08:06:22;;;;;;;17.63;14.23;;;11.80;98.30;;;;;;4190932;28;20473;-82
2021/10/18 08:08:30;;;;;;;17.67;13.73;;;11.80;98.30;;;;;;4190972;28;20535;-82
2021/10/18 08:10:33;;;;;;;17.10;13.10;;;11.90;98.30;;;;;;4191287;28;20478;-82
2021/10/18 08:12:37;;;;;;;17.20;14.10;;;11.90;98.30;;;;;;4191006;28;20885;-82
2021/10/18 08:14:40;;;;;;;24.67;14.00;;;11.90;98.30;;;;;;4191000;28;20562;-82
2021/10/18 08:16:44;;;;;;;21.60;14.67;;;12.00;98.30;;;;;;4190973;28;20477;-82
2021/10/18 08:18:50;;;;;;;24.57;13.93;;;11.90;98.30;;;;;;4191064;28;20824;-82
2021/10/18 08:20:53;;;;;;;19.60;14.80;;;11.90;98.30;;;;;;4190875;28;20467;-82
2021/10/18 08:22:56;;;;;;;17.20;13.00;;;11.90;98.30;;;;;;4190167;28;20483;-82
2021/10/18 08:24:59;;;;;;;22.50;15.20;;;12.00;98.30;;;;;;4190591;28;20467;-83
2021/10/18 08:27:05;;;;;;;16.97;13.03;;;12.10;98.30;;;;;;4198856;28;20559;-82
2021/10/18 08:29:08;;;;;;;22.83;14.30;;;12.10;98.30;;;;;;4191120;28;20498;-82
2021/10/18 08:31:11;;;;;;;17.83;13.00;;;12.10;98.30;;;;;;4190748;28;20557;-83
2021/10/18 08:33:15;;;;;;;21.03;12.83;;;12.20;98.30;;;;;;4199428;28;20487;-83
2021/10/18 08:35:19;;;;;;;17.50;13.00;;;12.20;98.30;;;;;;4197602;28;20477;-83
2021/10/18 08:37:22;;;;;;;18.10;13.83;;;12.30;98.30;;;;;;4193481;28;20462;-83
2021/10/18 08:41:49;;;;;;;17.13;13.00;;;12.30;98.30;;;;;;4191038;28;20477;-83
2021/10/18 08:46:13;;;;;;;20.40;13.53;;;12.30;98.30;;;;;;4190893;28;20463;-82
2021/10/18 08:48:25;;;;;;;17.60;13.37;;;12.40;98.30;;;;;;4190879;28;20485;-82
2021/10/18 08:50:28;;;;;;;14.83;12.40;;;12.40;98.30;;;;;;4194006;28;20470;-82
2021/10/18 08:52:32;;;;;;;19.90;12.37;;;12.50;98.30;;;;;;4191145;28;20478;-82
2021/10/18 08:54:35;;;;;;;17.27;12.83;;;12.50;98.30;;;;;;4190467;28;20482;-82
2021/10/18 08:56:38;;;;;;;15.47;12.80;;;12.60;98.30;;;;;;4186389;28;20924;-82
2021/10/18 08:58:42;;;;;;;18.17;13.53;;;12.60;98.30;;;;;;4190692;28;20471;-82
2021/10/18 09:00:51;;;;;;;17.07;12.27;;;12.50;98.30;;;;;;4190710;28;20468;-82
2021/10/18 09:03:00;;;;;;;21.80;12.70;;;12.50;98.30;;;;;;4197101;28;20462;-82
2021/10/18 09:05:08;;;;;;;15.10;12.40;;;12.50;98.30;;;;;;4189857;28;20471;-83
2021/10/18 09:07:17;;;;;;;15.87;12.03;;;12.60;98.30;;;;;;4190095;28;20471;-83
2021/10/18 09:09:28;;;;;;;16.43;11.60;;;12.60;98.30;;;;;;4190087;28;20927;-83
2021/10/18 09:11:34;;;;;;;17.70;12.07;;;12.60;98.30;;;;;;4195195;28;20463;-83
2021/10/18 09:14:02;;;;;;;15.27;11.47;;;12.60;98.30;;;;;;4195843;28;20490;-83
2021/10/18 09:16:26;;;;;;;15.87;12.60;;;12.60;98.30;;;;;;4190062;28;20506;-83
2021/10/18 09:18:29;;;;;;;16.47;13.70;;;12.50;98.30;;;;;;4193343;28;20481;-83
2021/10/18 09:20:36;;;;;;;16.43;12.33;;;12.50;98.30;;;;;;4186721;28;21164;-82
2021/10/18 09:22:39;;;;;;;16.37;12.83;;;12.60;98.30;;;;;;4189630;28;20464;-82
2021/10/18 09:24:43;;;;;;;18.27;12.37;;;12.60;98.30;;;;;;4189982;28;20555;-83
2021/10/18 09:26:55;;;;;;;17.67;12.83;;;12.60;98.30;;;;;;4190517;28;20884;-82
2021/10/18 09:29:05;;;;;;;15.30;11.83;;;12.70;98.30;;;;;;4190116;28;20786;-83
2021/10/18 09:31:16;;;;;;;16.63;12.43;;;12.70;98.30;;;;;;4190195;28;20465;-83
2021/10/18 09:33:24;;;;;;;15.47;12.30;;;12.70;98.30;;;;;;4190148;28;20479;-83
2021/10/18 09:35:27;;;;;;;14.60;11.67;;;12.60;98.30;;;;;;4192835;28;20971;-83
2021/10/18 09:37:39;;;;;;;13.47;11.67;;;12.60;98.30;;;;;;4186805;28;20551;-83
2021/10/18 09:39:42;;;;;;;17.60;12.37;;;12.60;98.30;;;;;;4190221;28;20554;-83
2021/10/18 09:41:59;;;;;;;19.00;14.80;;;12.70;98.30;;;;;;4189907;28;20466;-83
2021/10/18 09:44:12;;;;;;;15.37;12.43;;;12.60;98.30;;;;;;4189812;28;20527;-83
2021/10/18 09:46:17;;;;;;;15.70;13.00;;;12.60;98.30;;;;;;4189828;28;20478;-83
2021/10/18 10:52:57;;;;;;;13.00;10.40;;;13.80;98.30;;;;;;4197210;28;20477;-83
2021/10/18 10:55:19;;;;;;;13.00;10.50;;;13.80;98.30;;;;;;4188458;28;20474;-82
2021/10/18 10:57:31;;;;;;;13.53;10.60;;;13.90;98.30;;;;;;4189021;28;20494;-83
2021/10/18 10:59:35;;;;;;;12.90;10.33;;;13.80;98.30;;;;;;4189092;28;20467;-83
2021/10/18 11:01:46;;;;;;;13.40;10.50;;;13.80;98.30;;;;;;4189243;28;20471;-83
2021/10/18 11:03:49;;;;;;;12.50;9.53;;;13.90;98.30;;;;;;4188609;28;20476;-83
2021/10/18 11:05:56;;;;;;;12.60;9.90;;;13.90;98.30;;;;;;4195084;28;20463;-83
2021/10/18 11:07:59;;;;;;;13.27;11.00;;;13.90;98.30;;;;;;4188709;28;20477;-83
2021/10/18 11:10:02;;;;;;;13.23;10.57;;;13.90;98.30;;;;;;4188270;28;20529;-83
2021/10/18 11:12:07;;;;;;;15.70;10.33;;;14.00;98.30;;;;;;4188577;28;20473;-82
2021/10/18 11:14:10;;;;;;;12.97;9.70;;;13.90;98.30;;;;;;4188891;28;20488;-83
2021/10/18 11:16:15;;;;;;;12.20;10.73;;;13.90;98.30;;;;;;4188213;28;20479;-83
2021/10/18 11:18:24;;;;;;;13.77;9.87;;;14.00;98.30;;;;;;4188615;28;20455;-83
2021/10/18 11:20:28;;;;;;;15.60;10.70;;;14.00;98.30;;;;;;4193710;28;20462;-83
2021/10/18 11:22:34;;;;;;;11.07;9.77;;;13.90;98.30;;;;;;4188705;28;20464;-83
2021/10/18 11:24:41;;;;;;;12.10;10.30;;;13.90;98.30;;;;;;4188401;28;20455;-83
2021/10/18 11:26:44;;;;;;;10.17;9.23;;;14.00;98.30;;;;;;4193903;28;20532;-83
2021/10/18 11:28:47;;;;;;;12.70;9.60;;;14.00;98.30;;;;;;4196843;28;20467;-82
2021/10/18 11:30:50;;;;;;;12.93;9.10;;;14.00;98.30;;;;;;4190485;28;20715;-83
2021/10/18 11:33:00;;;;;;;12.47;10.03;;;14.00;98.30;;;;;;4194817;28;20475;-83
2021/10/18 11:35:12;;;;;;;11.63;9.60;;;14.10;98.30;;;;;;4188382;28;20511;-82
2021/10/18 11:37:15;;;;;;;13.77;9.27;;;14.00;98.30;;;;;;4188342;28;20466;-82
2021/10/18 11:39:22;;;;;;;13.90;9.77;;;14.10;98.30;;;;;;4188500;28;20946;-83
2021/10/18 11:41:25;;;;;;;13.83;9.27;;;14.10;98.30;;;;;;4188342;28;20968;-83
2021/10/18 11:43:30;;;;;;;12.93;10.47;;;14.10;98.30;;;;;;4188219;28;20499;-83
2021/10/18 11:45:34;;;;;;;16.13;9.67;;;14.10;98.30;;;;;;4188073;28;20534;-83
2021/10/18 11:47:38;;;;;;;15.40;9.00;;;14.10;98.30;;;;;;4188333;28;20460;-82
2021/10/18 11:49:43;;;;;;;10.83;9.53;;;14.10;98.30;;;;;;4192966;28;20487;-83
2021/10/18 11:51:45;;;;;;;12.10;9.10;;;14.10;98.30;;;;;;4188418;28;20486;-83
2021/10/18 11:53:53;;;;;;;12.23;9.43;;;14.10;98.30;;;;;;4188318;28;20483;-82
2021/10/18 11:55:57;;;;;;;11.73;8.73;;;14.10;98.30;;;;;;4196181;28;20473;-83
2021/10/18 11:58:04;;;;;;;10.97;9.47;;;14.10;98.30;;;;;;4188339;28;20964;-83
2021/10/18 12:00:10;;;;;;;16.53;12.63;;;14.10;98.30;;;;;;4188349;28;20459;-83
2021/10/18 12:02:20;;;;;;;11.77;9.37;;;14.10;98.30;;;;;;4189001;28;20455;-83
2021/10/18 12:04:23;;;;;;;10.83;9.57;;;14.20;98.30;;;;;;4187982;28;20476;-83
2021/10/18 12:06:27;;;;;;;14.97;9.60;;;14.20;98.30;;;;;;4188168;28;20467;-83
2021/10/18 12:08:31;;;;;;;11.80;9.30;;;14.20;98.30;;;;;;4187860;28;20886;-83
2021/10/18 12:10:36;;;;;;;10.20;8.90;;;14.20;98.30;;;;;;4187626;28;20490;-83
2021/10/18 12:12:39;;;;;;;11.97;8.60;;;14.20;98.30;;;;;;4187832;28;20505;-83
2021/10/18 12:14:52;;;;;;;10.20;8.63;;;14.20;98.30;;;;;;4187649;28;20479;-83
2021/10/18 12:16:54;;;;;;;11.00;8.90;;;14.20;98.30;;;;;;4188047;28;20463;-83
2021/10/18 12:18:59;;;;;;;13.20;8.67;;;14.20;98.30;;;;;;4187928;28;20463;-83
2021/10/18 12:21:06;;;;;;;11.73;9.00;;;14.20;98.30;;;;;;4190756;28;20466;-83
2021/10/18 12:23:18;;;;;;;12.03;9.67;;;14.20;98.30;;;;;;4190433;28;20616;-83
2021/10/18 12:25:21;;;;;;;11.80;10.13;;;14.20;98.30;;;;;;4191024;28;20799;-82
2021/10/18 12:27:26;;;;;;;11.57;9.47;;;14.20;98.30;;;;;;4190649;28;20528;-83
2021/10/18 12:29:38;;;;;;;11.70;9.30;;;14.10;98.30;;;;;;4190758;28;20464;-82